Yarmouth Port, MA

19:07 EST le 22 décembre 2014 (GMT -0500)
Barnstable Municipal-Boardman-Polando Field | Change Station
CLOSE
Current Station
Aéroport
Location: Hyannis,
Altitude: 52 ft
Stations météo à proximité
Avis météorologiques actifs: Coastal Flood Advisory

Alt. 52 ft 41.67 °N, 70.28 °W | Updated 11 minutes ago

Couvert
Couvert
41 ° F
Paraît 38 ° F
N
5
Vent Variable Vent de ENE

Aujourd'hui
Haut(e) -- | Bas -- ° F
--% Risque de précip.
Hier
Haut(e) -- | Bas -- ° F
Precip. -- pouce
7:05 AM 4:14 PM
Nouvelle lune, 1% visible
Pression 30.31 pouce
Visibilité 10.0 Miles terrestres
Nuages Ciel dégagé
Refroidissement éolien 38 ° F
Point de rosée 35 ° F
Humidité 79%
Précipitations 0.01 pouce
Profondeur de la couche neigeuse Non disponible.
UV 0 sur 12
Pollen .10 sur 12
Qualité de l'air Non disponible.
Flu Activity Non disponible.
METAR KHYA 222356Z 06004KT 10SM CLR 05/02 A3030 RMK AO2 SLP262 T00500017 10083 20050 53002

More Conditions Fewer Conditions

Pression 30.31 pouce
Visibilité 10.0 Miles terrestres
Nuages Ciel dégagé
Refroidissement éolien 38 ° F
Point de rosée 35 ° F
Humidité 79%
Précipitations 0.01 pouce
Profondeur de la couche neigeuse Non disponible.
UV 0 sur 12
Pollen .10 sur 12
Qualité de l'air Non disponible.
Flu Activity Non disponible.
METAR KHYA 222356Z 06004KT 10SM CLR 05/02 A3030 RMK AO2 SLP262 T00500017 10083 20050 53002

More Conditions Fewer Conditions

10-Day Weather Forecast

Almanac

Astronomie

Dec. 22, 2014 Lever Coucher
Temps réel
Crépuscule civil
Crépuscule nautique
Crépuscule astronomique
Lune
Durée de lumière visible
Longueur du jour
Tomorrow will be .
, % of the Moon is Illuminated

Extrêmes aujourd'hui

State Highs State Lows

Community

WunderPhotos

Upload Photos

1,779,732 Photos téléchargées !

WunderBlogs® & News

Nearby

Qualité de l'air

  Qualité de l'air Indice de la qualité de l'air Polluant
Not available.

Épaisseur de neige

Station Depth Altitude

Activité sismique

Ville Distance Mag. Time & Date
Minimum magnitude displayed is 2.5.

Températures des eaux côtières

Lieu Température

Stations météo à proximité